Time;durP1;ratioP1;P1;durP2;ratioP2;P2;SDS_P1;SDS_P2;PMS_P1;PMS_P2;Temp;Humidity;BMP_temperature;BMP_pressure;BME280_temperature;BME280_humidity;BME280_pressure;Samples;Min_cycle;Max_cycle;Signal;HPM_P1;HPM_P2
2022/07/08 00:58:10;;;;;;;14.13;2.28;;;13.70;99.90;;;;;;6033451;23;20413;-86
2022/07/08 01:49:14;;;;;;;11.00;2.60;;;12.90;99.90;;;;;;6181148;23;20017;-84
2022/07/08 02:49:29;;;;;;;10.98;2.90;;;11.90;99.90;;;;;;6189394;23;20020;-85
2022/07/08 03:26:18;;;;;;;12.43;2.80;;;11.70;99.90;;;;;;6180676;23;20397;-85
2022/07/08 04:42:32;;;;;;;11.02;2.72;;;12.10;99.90;;;;;;6185504;23;20020;-84
2022/07/08 04:44:57;;;;;;;11.43;3.15;;;11.60;99.90;;;;;;6184736;23;20017;-85
2022/07/08 07:09:39;;;;;;;9.00;2.20;;;15.90;99.90;;;;;;6154856;23;20017;-88
2022/07/08 07:12:27;;;;;;;7.93;2.20;;;16.50;99.90;;;;;;6156996;23;20068;-89
2022/07/08 07:15:08;;;;;;;11.50;2.50;;;16.30;99.90;;;;;;6128820;23;20484;-87
2022/07/08 07:17:43;;;;;;;12.75;2.40;;;16.40;99.90;;;;;;6130092;23;20061;-88
2022/07/08 07:20:24;;;;;;;7.45;2.05;;;17.30;99.90;;;;;;6130600;23;20382;-89
2022/07/08 07:22:56;;;;;;;10.63;2.13;;;17.50;99.90;;;;;;6128658;23;20075;-90
2022/07/08 07:25:31;;;;;;;10.15;2.47;;;16.20;99.90;;;;;;6129435;23;20017;-87
2022/07/08 07:27:59;;;;;;;11.95;2.22;;;17.60;99.90;;;;;;6144361;23;20068;-88
2022/07/08 07:30:36;;;;;;;9.13;2.20;;;17.00;99.90;;;;;;6128851;23;20024;-87
2022/07/08 07:33:17;;;;;;;10.45;2.40;;;17.50;99.90;;;;;;6155773;23;20084;-90
2022/07/08 07:35:52;;;;;;;11.65;2.38;;;16.70;99.90;;;;;;6128175;23;20013;-90
2022/07/08 07:38:53;;;;;;;9.48;2.40;;;16.70;99.90;;;;;;6128292;23;20127;-86
2022/07/08 07:41:19;;;;;;;9.43;2.25;;;17.60;99.90;;;;;;6130174;23;20022;-89
2022/07/08 07:43:50;;;;;;;9.50;2.65;;;16.80;99.90;;;;;;6153680;23;20088;-88
2022/07/08 07:46:28;;;;;;;13.30;2.70;;;17.70;99.90;;;;;;6131306;23;20112;-88
2022/07/08 07:49:10;;;;;;;13.68;2.50;;;17.30;99.90;;;;;;6129068;23;20020;-87
2022/07/08 07:51:51;;;;;;;12.70;2.97;;;17.80;99.90;;;;;;6156246;23;20061;-88
2022/07/08 07:54:31;;;;;;;12.07;2.35;;;18.00;99.90;;;;;;6158280;23;20010;-86
2022/07/08 07:56:57;;;;;;;12.45;2.20;;;17.30;99.90;;;;;;6152651;23;20442;-88
2022/07/08 07:59:22;;;;;;;9.32;2.30;;;16.90;99.90;;;;;;6129353;23;20041;-86
2022/07/08 08:01:57;;;;;;;11.13;2.60;;;16.90;99.90;;;;;;6129146;23;20331;-87
2022/07/08 08:04:29;;;;;;;12.90;2.50;;;16.00;99.90;;;;;;6148518;23;20021;-86
2022/07/08 08:07:57;;;;;;;10.30;2.42;;;17.60;99.90;;;;;;6158112;23;20021;-88
2022/07/08 08:10:52;;;;;;;12.48;2.72;;;16.70;99.90;;;;;;6184914;23;20048;-87
2022/07/08 08:13:31;;;;;;;10.98;2.38;;;16.80;99.90;;;;;;6185250;23;20370;-87
2022/07/08 08:16:11;;;;;;;11.63;2.97;;;17.10;99.90;;;;;;6157806;23;20024;-87
2022/07/08 08:18:46;;;;;;;10.02;2.55;;;17.80;99.90;;;;;;6157865;23;20366;-87
2022/07/08 08:21:12;;;;;;;11.48;2.53;;;17.20;99.90;;;;;;6158158;23;20056;-88
2022/07/08 08:23:56;;;;;;;13.20;2.70;;;17.80;99.90;;;;;;6064814;23;20070;-89
2022/07/08 08:27:03;;;;;;;13.60;3.95;;;18.10;99.90;;;;;;6064441;23;20023;-88
2022/07/08 08:29:37;;;;;;;10.60;2.30;;;17.90;99.90;;;;;;6041066;23;20263;-90
2022/07/08 08:32:21;;;;;;;9.90;2.60;;;16.50;99.90;;;;;;6039772;23;20018;-89
2022/07/08 08:35:27;;;;;;;9.05;2.25;;;18.10;99.90;;;;;;6064709;23;20470;-88
2022/07/08 08:38:08;;;;;;;14.95;2.78;;;17.00;99.90;;;;;;6065493;23;20439;-88
2022/07/08 08:41:14;;;;;;;11.02;2.72;;;16.90;99.90;;;;;;6040029;23;20030;-87
2022/07/08 08:44:01;;;;;;;10.90;2.85;;;16.90;99.90;;;;;;6066046;23;20500;-87
2022/07/08 08:46:44;;;;;;;14.25;2.65;;;17.30;99.90;;;;;;5994373;23;20066;-87
2022/07/08 08:49:20;;;;;;;11.45;2.30;;;18.50;99.90;;;;;;6154227;23;20021;-88
2022/07/08 08:51:58;;;;;;;10.70;2.30;;;17.50;99.90;;;;;;6158716;23;20017;-88
2022/07/08 08:54:33;;;;;;;7.75;2.22;;;17.60;99.90;;;;;;6172874;23;20021;-87
2022/07/08 08:57:07;;;;;;;12.80;2.30;;;17.50;99.90;;;;;;6188029;23;20020;-88
2022/07/08 08:59:49;;;;;;;7.97;2.75;;;17.90;99.90;;;;;;6159174;23;20068;-87
2022/07/08 09:02:19;;;;;;;10.60;2.67;;;19.00;99.90;;;;;;6156619;23;20048;-88
2022/07/08 09:04:47;;;;;;;11.07;2.50;;;17.60;99.90;;;;;;6157381;23;20107;-88
2022/07/08 09:07:33;;;;;;;11.13;2.47;;;18.60;99.90;;;;;;6157333;23;20700;-88
2022/07/08 09:10:11;;;;;;;8.77;2.20;;;18.20;99.90;;;;;;6157714;23;20021;-88
2022/07/08 09:15:59;;;;;;;9.43;2.30;;;18.20;99.90;;;;;;6153896;23;20037;-90
2022/07/08 09:19:04;;;;;;;9.98;2.25;;;18.20;99.90;;;;;;6148376;23;20353;-92
2022/07/08 09:21:59;;;;;;;11.32;2.67;;;18.80;99.90;;;;;;6153780;23;20025;-91
2022/07/08 09:24:27;;;;;;;11.38;2.63;;;17.60;99.90;;;;;;6129070;23;20028;-90
2022/07/08 09:27:15;;;;;;;10.73;2.42;;;18.30;99.90;;;;;;6155190;23;20022;-90
2022/07/08 09:30:12;;;;;;;10.82;2.65;;;18.30;99.90;;;;;;6128567;23;20020;-88
2022/07/08 09:33:12;;;;;;;9.63;2.45;;;18.50;99.90;;;;;;6130017;23;20024;-88
2022/07/08 09:35:50;;;;;;;10.35;2.58;;;18.50;99.90;;;;;;6156333;23;20014;-91
2022/07/08 09:38:43;;;;;;;10.18;2.30;;;19.00;99.90;;;;;;6156807;23;20328;-91
2022/07/08 09:41:17;;;;;;;12.02;2.70;;;18.40;99.90;;;;;;6156896;23;20028;-89
2022/07/08 09:43:56;;;;;;;10.55;2.40;;;19.30;99.90;;;;;;6130004;23;20017;-89
2022/07/08 09:46:22;;;;;;;8.43;2.00;;;19.20;99.90;;;;;;6129311;23;20018;-89
2022/07/08 09:53:12;;;;;;;9.48;2.47;;;18.50;99.90;;;;;;6098552;23;20421;-89
2022/07/08 11:37:56;;;;;;;10.15;2.85;;;21.70;99.90;;;;;;6157275;23;20095;-92
2022/07/08 11:41:00;;;;;;;8.55;2.60;;;21.80;99.90;;;;;;6130222;23;20458;-91
2022/07/08 11:43:32;;;;;;;9.38;2.78;;;21.90;99.90;;;;;;6160140;23;20024;-93
2022/07/08 11:46:38;;;;;;;8.90;2.88;;;21.80;99.90;;;;;;6157371;23;20017;-93
2022/07/08 11:49:16;;;;;;;11.90;3.00;;;21.60;99.90;;;;;;6136667;23;20022;-92
2022/07/08 11:54:23;;;;;;;9.90;2.83;;;22.30;99.90;;;;;;6184346;23;20025;-92
2022/07/08 11:56:56;;;;;;;8.43;2.63;;;22.30;99.90;;;;;;6184416;23;20021;-93
2022/07/08 11:59:35;;;;;;;;;;;21.60;99.90;;;;;;6159809;23;20013;-93
2022/07/08 12:02:21;;;;;;;9.38;2.67;;;22.40;99.90;;;;;;6185881;23;20018;-92
2022/07/08 12:04:48;;;;;;;10.35;2.70;;;22.10;99.90;;;;;;6162833;23;20017;-93
2022/07/08 12:07:37;;;;;;;8.73;2.70;;;23.10;99.90;;;;;;6163732;23;20649;-90
2022/07/08 12:10:21;;;;;;;10.63;2.78;;;22.20;99.90;;;;;;6159008;23;20013;-91
2022/07/08 12:13:02;;;;;;;10.07;3.20;;;22.40;99.90;;;;;;6158607;23;20032;-90
2022/07/08 12:15:40;;;;;;;10.18;2.88;;;23.20;99.90;;;;;;6157664;23;20023;-88
2022/07/08 12:18:24;;;;;;;9.23;2.58;;;22.20;99.90;;;;;;6158420;23;20017;-90
2022/07/08 12:21:37;;;;;;;9.77;2.67;;;22.50;99.90;;;;;;6185221;23;20406;-89
2022/07/08 12:24:32;;;;;;;8.25;2.63;;;22.60;99.90;;;;;;6156576;23;20112;-89
2022/07/08 12:27:34;;;;;;;9.63;2.58;;;22.50;99.90;;;;;;6116512;23;20120;-87
2022/07/08 12:30:04;;;;;;;9.40;2.92;;;22.40;99.90;;;;;;6143651;23;20354;-88
2022/07/08 12:37:03;;;;;;;9.18;3.05;;;22.30;99.90;;;;;;6157478;23;20021;-89
2022/07/08 12:40:32;;;;;;;10.88;3.17;;;22.10;99.90;;;;;;6159770;23;20022;-93
2022/07/08 12:43:02;;;;;;;9.40;2.90;;;22.40;99.90;;;;;;6161491;23;20029;-91
2022/07/08 12:45:35;;;;;;;8.98;3.00;;;22.50;99.90;;;;;;6185870;23;20333;-93
2022/07/08 12:48:02;;;;;;;9.35;2.75;;;22.50;99.90;;;;;;6185117;23;20021;-92
2022/07/08 12:50:41;;;;;;;9.82;3.08;;;22.90;99.90;;;;;;6158256;23;20044;-92
2022/07/08 12:53:06;;;;;;;10.45;3.38;;;23.00;99.90;;;;;;6184212;23;20104;-92
2022/07/08 12:55:32;;;;;;;9.38;2.97;;;23.20;99.90;;;;;;6173107;23;20055;-91
2022/07/08 12:57:58;;;;;;;9.77;3.25;;;23.00;99.90;;;;;;6174574;23;20021;-91
2022/07/08 13:00:23;;;;;;;9.65;2.78;;;22.80;99.90;;;;;;6196599;23;20017;-94
2022/07/08 13:03:08;;;;;;;10.50;3.28;;;22.80;99.90;;;;;;6124858;23;20014;-92
2022/07/08 13:05:33;;;;;;;10.18;2.88;;;22.90;99.90;;;;;;6125616;23;20014;-93
2022/07/08 13:08:08;;;;;;;9.50;2.90;;;23.40;99.90;;;;;;6124719;23;20053;-94
2022/07/08 13:10:33;;;;;;;10.30;3.38;;;22.90;99.90;;;;;;6126402;23;20010;-93
2022/07/08 13:13:11;;;;;;;11.20;3.00;;;23.10;99.90;;;;;;6102612;23;20255;-95
2022/07/08 13:15:49;;;;;;;12.32;3.25;;;23.80;99.90;;;;;;6100948;23;20057;-94
2022/07/08 13:18:15;;;;;;;9.32;2.97;;;23.20;99.90;;;;;;6100746;23;20024;-95
2022/07/08 13:36:31;;;;;;;;;;;;;;;;;;;;;
2022/07/08 13:45:43;;;;;;;7.85;2.60;;;23.70;99.90;;;;;;6170351;23;20028;-91
2022/07/08 13:48:12;;;;;;;9.82;2.60;;;23.40;99.90;;;;;;6159715;23;20014;-94
2022/07/08 13:51:05;;;;;;;10.00;2.60;;;23.90;99.90;;;;;;6151027;23;20080;-92
2022/07/08 13:53:50;;;;;;;8.63;2.60;;;23.40;99.90;;;;;;6154649;23;20049;-95
2022/07/08 13:56:22;;;;;;;9.15;2.42;;;23.50;99.90;;;;;;6155126;23;20706;-94
2022/07/08 13:58:49;;;;;;;12.13;2.70;;;23.70;99.90;;;;;;6154596;23;20435;-95
2022/07/08 14:01:36;;;;;;;10.30;2.53;;;23.70;99.90;;;;;;6155772;23;20022;-96
2022/07/08 14:04:14;;;;;;;8.80;2.55;;;23.80;99.90;;;;;;6155618;23;20092;-95
2022/07/08 14:07:01;;;;;;;11.30;2.80;;;23.80;99.90;;;;;;6158099;23;20026;-94
2022/07/08 14:09:41;;;;;;;8.35;2.50;;;23.80;99.90;;;;;;6156933;23;20029;-95
2022/07/08 14:12:14;;;;;;;9.50;2.50;;;24.00;99.90;;;;;;6155669;23;20333;-93
2022/07/08 14:15:08;;;;;;;8.05;2.40;;;23.90;99.90;;;;;;6162855;23;20021;-93
2022/07/08 14:17:35;;;;;;;7.80;2.80;;;24.10;99.90;;;;;;6161493;23;20048;-96
2022/07/08 14:20:17;;;;;;;7.90;2.60;;;24.00;99.90;;;;;;6160252;23;20018;-94
2022/07/08 14:22:58;;;;;;;7.50;2.63;;;23.70;99.90;;;;;;6160098;23;20028;-95
2022/07/08 14:25:33;;;;;;;9.73;2.72;;;23.50;99.90;;;;;;6158977;23;20450;-94
2022/07/08 14:28:17;;;;;;;7.97;2.47;;;23.50;99.90;;;;;;6145285;23;20017;-94
2022/07/08 14:30:43;;;;;;;6.78;2.30;;;23.60;99.90;;;;;;6136089;23;20446;-94
2022/07/08 14:33:27;;;;;;;8.68;2.78;;;23.60;99.90;;;;;;6159075;23;20028;-94
2022/07/08 14:36:15;;;;;;;11.02;2.67;;;23.60;99.90;;;;;;6132732;23;20014;-96
2022/07/08 14:38:53;;;;;;;10.57;2.70;;;23.90;99.90;;;;;;6165068;23;20080;-94
2022/07/08 14:42:00;;;;;;;11.52;2.83;;;23.90;99.90;;;;;;6138938;23;20048;-94
2022/07/08 14:44:34;;;;;;;9.18;2.67;;;24.20;99.90;;;;;;6176777;23;20028;-94
2022/07/08 14:47:44;;;;;;;;;;;24.50;99.90;;;;;;6154075;23;20057;-94
2022/07/08 14:51:13;;;;;;;9.00;2.53;;;24.80;99.90;;;;;;6134864;23;19957;-92
2022/07/08 14:54:33;;;;;;;9.00;2.72;;;25.10;99.90;;;;;;6155653;23;20081;-88
2022/07/08 14:57:26;;;;;;;9.75;2.97;;;25.10;99.90;;;;;;6135603;23;20462;-96
2022/07/08 15:00:01;;;;;;;10.32;2.85;;;25.20;99.90;;;;;;6163887;23;20024;-96
2022/07/08 15:10:08;;;;;;;10.13;2.97;;;25.20;99.90;;;;;;6154636;23;20063;-96
2022/07/08 15:48:22;;;;;;;9.23;2.70;;;24.50;99.90;;;;;;6190420;23;20016;-95
2022/07/08 15:51:11;;;;;;;9.50;2.60;;;24.50;99.90;;;;;;6188987;23;20445;-92
2022/07/08 15:53:43;;;;;;;9.10;2.70;;;24.90;99.90;;;;;;6162637;23;20051;-93
2022/07/08 15:56:20;;;;;;;8.82;2.50;;;24.70;99.90;;;;;;6204102;23;20128;-93
2022/07/08 16:13:29;;;;;;;9.55;2.70;;;25.40;99.90;;;;;;6186501;23;20016;-93
2022/07/08 16:16:45;;;;;;;10.77;2.60;;;25.70;99.90;;;;;;6086952;23;20021;-92
2022/07/08 16:26:40;;;;;;;9.60;2.50;;;25.00;99.90;;;;;;6066616;23;20070;-93
2022/07/08 16:29:15;;;;;;;9.02;2.40;;;24.70;99.90;;;;;;6182226;23;20020;-91
2022/07/08 16:32:08;;;;;;;8.23;2.50;;;24.60;99.90;;;;;;6139921;23;20021;-91
2022/07/08 16:34:36;;;;;;;8.65;2.28;;;24.70;99.90;;;;;;6157424;23;20092;-90
2022/07/08 16:37:14;;;;;;;8.25;2.42;;;24.70;99.90;;;;;;6182886;23;20057;-89
2022/07/08 16:40:00;;;;;;;6.78;2.42;;;24.70;99.90;;;;;;6034799;23;20023;-91
2022/07/08 16:49:38;;;;;;;8.57;2.30;;;24.60;99.90;;;;;;6012246;23;20031;-89
2022/07/08 16:55:23;;;;;;;7.50;2.13;;;25.10;99.90;;;;;;6179671;23;20048;-91
2022/07/08 16:58:44;;;;;;;8.00;2.30;;;25.10;99.90;;;;;;6184553;23;20441;-93
2022/07/08 17:02:20;;;;;;;9.85;2.30;;;25.10;99.90;;;;;;6190551;23;20051;-92
2022/07/08 17:08:09;;;;;;;;;;;25.20;99.90;;;;;;6184650;23;20025;-90
2022/07/08 17:11:41;;;;;;;6.93;2.20;;;24.80;99.90;;;;;;6181778;23;19920;-88
2022/07/08 17:14:11;;;;;;;8.73;2.20;;;24.70;99.90;;;;;;6182920;23;20088;-89
2022/07/08 17:26:48;;;;;;;8.07;2.38;;;25.10;99.90;;;;;;6184745;23;20016;-87
2022/07/08 17:32:10;;;;;;;8.20;2.60;;;24.80;99.90;;;;;;6185349;23;20021;-89
2022/07/08 17:35:05;;;;;;;8.88;2.50;;;24.10;99.90;;;;;;6183817;23;20013;-90
2022/07/08 17:37:55;;;;;;;9.45;2.58;;;24.90;99.90;;;;;;6159027;23;20017;-90
2022/07/08 17:40:36;;;;;;;7.72;2.38;;;24.90;99.90;;;;;;6160785;23;20020;-93
2022/07/08 17:53:42;;;;;;;8.02;2.28;;;24.80;99.90;;;;;;6159807;23;20017;-93
2022/07/08 17:56:14;;;;;;;9.00;2.40;;;24.60;99.90;;;;;;6185598;23;20013;-91
2022/07/08 17:58:40;;;;;;;9.35;2.33;;;24.40;99.90;;;;;;6160054;23;20087;-92
2022/07/08 18:01:05;;;;;;;8.48;2.30;;;24.20;99.90;;;;;;6186458;23;20100;-93
2022/07/08 18:04:01;;;;;;;10.23;2.70;;;23.90;99.90;;;;;;6181407;23;20107;-92
2022/07/08 18:06:39;;;;;;;9.13;2.25;;;24.20;99.90;;;;;;6145005;23;20164;-91
2022/07/08 18:10:04;;;;;;;8.32;2.42;;;23.00;99.90;;;;;;6158117;23;20021;-92
2022/07/08 18:13:37;;;;;;;9.73;2.25;;;22.70;99.90;;;;;;6159563;23;20096;-92
2022/07/08 18:16:56;;;;;;;9.77;2.50;;;22.70;99.90;;;;;;6157995;23;20092;-93
2022/07/08 18:19:22;;;;;;;6.85;2.40;;;23.10;99.90;;;;;;6160175;23;20081;-92
2022/07/08 18:22:00;;;;;;;8.15;2.20;;;23.30;99.90;;;;;;6186133;23;20116;-91
2022/07/08 18:24:29;;;;;;;10.23;2.72;;;23.30;99.90;;;;;;6158713;23;20009;-92
2022/07/08 18:27:01;;;;;;;10.38;2.45;;;23.10;99.90;;;;;;6164563;23;20043;-91
2022/07/08 18:29:49;;;;;;;10.55;2.72;;;23.70;99.90;;;;;;6187261;23;20059;-91
2022/07/08 18:32:58;;;;;;;10.85;2.70;;;22.80;99.90;;;;;;6137539;23;20394;-94
2022/07/08 18:41:10;;;;;;;10.15;2.75;;;22.80;99.90;;;;;;6162529;23;20033;-95
2022/07/08 18:43:51;;;;;;;9.50;2.58;;;22.70;99.90;;;;;;6160212;23;20032;-94
2022/07/08 18:50:03;;;;;;;8.55;2.38;;;22.80;99.90;;;;;;6160968;23;20068;-94
2022/07/08 19:07:05;;;;;;;8.30;2.78;;;22.70;99.90;;;;;;6164623;23;20055;-96
2022/07/08 19:10:41;;;;;;;8.90;2.80;;;21.70;99.90;;;;;;6153194;23;20000;-96
2022/07/08 19:16:23;;;;;;;9.18;3.03;;;21.30;99.90;;;;;;6177210;23;20029;-93
2022/07/08 19:22:52;;;;;;;8.95;2.75;;;21.20;99.90;;;;;;6190723;23;20608;-93
2022/07/08 19:25:55;;;;;;;9.40;2.80;;;20.90;99.90;;;;;;6147924;23;20060;-94
2022/07/08 19:28:36;;;;;;;9.35;2.55;;;20.60;99.90;;;;;;6157478;23;20020;-93
2022/07/08 19:31:05;;;;;;;8.02;2.72;;;20.60;99.90;;;;;;6158942;23;20100;-92
2022/07/08 19:33:31;;;;;;;8.82;2.63;;;21.00;99.90;;;;;;6159854;23;20350;-95
2022/07/08 19:36:03;;;;;;;11.23;2.80;;;20.50;99.90;;;;;;6159762;23;20016;-92
2022/07/08 19:38:28;;;;;;;8.95;3.00;;;20.30;99.90;;;;;;6186305;23;20017;-93
2022/07/08 19:41:03;;;;;;;8.65;2.90;;;21.10;99.90;;;;;;6158979;23;20147;-93
2022/07/08 19:43:36;;;;;;;9.52;3.03;;;20.10;99.90;;;;;;6186843;23;20017;-94
2022/07/08 19:46:29;;;;;;;9.40;2.70;;;20.90;99.90;;;;;;6186175;23;20437;-93
2022/07/08 19:49:04;;;;;;;8.48;2.90;;;19.90;99.90;;;;;;6160542;23;20452;-94
2022/07/08 19:51:45;;;;;;;9.75;2.90;;;19.90;99.90;;;;;;6159494;23;20017;-94
2022/07/08 19:54:26;;;;;;;12.65;3.33;;;19.80;99.90;;;;;;6161230;23;20044;-93
2022/07/08 19:57:00;;;;;;;9.20;2.88;;;19.70;99.90;;;;;;6187117;23;20024;-92
2022/07/08 19:59:44;;;;;;;9.80;3.17;;;19.60;99.90;;;;;;6187438;23;20099;-95
2022/07/08 20:10:40;;;;;;;11.48;3.47;;;20.20;99.90;;;;;;6098760;23;20109;-96
2022/07/08 20:13:06;;;;;;;8.75;3.25;;;19.30;99.90;;;;;;6114838;23;20019;-94
2022/07/08 20:15:36;;;;;;;11.75;3.55;;;19.40;99.90;;;;;;6080578;23;20419;-96
2022/07/08 20:18:10;;;;;;;11.60;3.17;;;19.20;99.90;;;;;;6097540;23;20022;-94
2022/07/08 20:20:51;;;;;;;9.93;3.50;;;19.20;99.90;;;;;;6103948;23;20026;-95
2022/07/08 20:26:40;;;;;;;12.23;3.50;;;19.40;99.90;;;;;;6152192;23;20021;-88
2022/07/08 20:29:13;;;;;;;10.68;3.85;;;19.00;99.90;;;;;;6154403;23;20039;-86
2022/07/08 20:31:42;;;;;;;11.90;3.80;;;18.90;99.90;;;;;;6129583;23;20021;-86
2022/07/08 20:34:07;;;;;;;14.75;3.85;;;19.60;99.90;;;;;;6154728;23;20064;-87
2022/07/08 20:36:52;;;;;;;;;;;;;;;;;;;;;
2022/07/08 20:40:26;;;;;;;9.73;3.50;;;18.50;99.90;;;;;;6040296;23;20090;-86
2022/07/08 20:43:07;;;;;;;10.60;4.10;;;18.70;99.90;;;;;;6046369;23;20050;-88
2022/07/08 20:45:42;;;;;;;10.48;3.92;;;19.40;99.90;;;;;;6056858;23;20023;-88
2022/07/08 20:48:19;;;;;;;15.27;4.10;;;18.60;99.90;;;;;;6065268;23;20078;-90
2022/07/08 20:50:56;;;;;;;10.70;4.00;;;19.50;99.90;;;;;;6063978;23;20375;-88
2022/07/08 20:53:22;;;;;;;11.30;4.00;;;18.50;99.90;;;;;;6104599;23;20021;-88
2022/07/08 20:55:48;;;;;;;10.73;3.88;;;18.50;99.90;;;;;;6183471;23;20088;-88
2022/07/08 20:58:24;;;;;;;13.70;4.00;;;18.40;99.90;;;;;;6156433;23;20024;-89
2022/07/08 21:00:55;;;;;;;12.88;4.30;;;19.00;99.90;;;;;;6184140;23;20013;-89
2022/07/08 21:03:30;;;;;;;9.60;4.00;;;19.00;99.90;;;;;;6157896;23;20052;-87
2022/07/08 21:06:03;;;;;;;9.85;3.85;;;18.40;99.90;;;;;;6183564;23;20311;-88
2022/07/08 21:08:45;;;;;;;10.00;3.70;;;18.30;99.90;;;;;;6184348;23;20021;-88
2022/07/08 21:11:37;;;;;;;12.05;3.70;;;18.50;99.90;;;;;;6182463;23;20328;-88
2022/07/08 21:14:17;;;;;;;13.55;3.33;;;18.20;99.90;;;;;;6185687;23;20021;-89
2022/07/08 21:16:49;;;;;;;11.52;4.10;;;18.20;99.90;;;;;;6159230;23;20012;-87
2022/07/08 21:19:20;;;;;;;14.85;4.03;;;19.20;99.90;;;;;;6185572;23;20017;-88
2022/07/08 21:21:57;;;;;;;12.07;4.07;;;17.90;99.90;;;;;;6186772;23;20039;-88
2022/07/08 21:24:29;;;;;;;11.38;4.20;;;18.00;99.90;;;;;;6186432;23;20032;-88
2022/07/08 21:27:07;;;;;;;9.48;4.10;;;18.60;99.90;;;;;;6159307;23;20013;-88
2022/07/08 21:29:36;;;;;;;12.70;4.10;;;18.40;99.90;;;;;;6160105;23;20048;-88
2022/07/08 21:32:08;;;;;;;11.93;4.60;;;18.90;99.90;;;;;;6159365;23;20013;-89
2022/07/08 21:34:42;;;;;;;13.45;4.80;;;18.60;99.90;;;;;;6185847;23;20092;-89
2022/07/08 21:37:08;;;;;;;10.57;3.72;;;17.70;99.90;;;;;;6159163;23;20021;-87
2022/07/08 21:39:34;;;;;;;11.43;4.78;;;17.70;99.90;;;;;;6183804;23;20092;-88
2022/07/08 21:42:02;;;;;;;10.07;4.22;;;17.60;99.90;;;;;;6159044;23;20409;-88
2022/07/08 21:44:27;;;;;;;12.15;4.60;;;18.10;99.90;;;;;;6186163;23;20009;-88
2022/07/08 21:46:53;;;;;;;11.88;4.43;;;17.50;99.90;;;;;;6158286;23;20123;-90
2022/07/08 21:49:27;;;;;;;11.13;4.43;;;18.20;99.90;;;;;;6186802;23;20009;-96
2022/07/08 21:51:56;;;;;;;12.50;4.35;;;18.40;99.90;;;;;;6188008;23;20028;-89
2022/07/08 21:54:30;;;;;;;11.73;4.43;;;18.40;99.90;;;;;;6159134;23;20048;-90
2022/07/08 21:57:00;;;;;;;;;;;18.40;99.90;;;;;;6161216;23;20357;-90
2022/07/08 21:59:33;;;;;;;11.25;4.30;;;17.40;99.90;;;;;;6187382;23;20325;-89
2022/07/08 22:02:12;;;;;;;14.57;5.13;;;18.10;99.90;;;;;;6185055;23;20446;-90
2022/07/08 22:04:40;;;;;;;11.38;4.90;;;17.00;99.90;;;;;;6160380;23;20028;-90
2022/07/08 22:07:21;;;;;;;15.30;5.28;;;17.20;99.90;;;;;;6163171;23;20028;-89
2022/07/08 22:10:04;;;;;;;12.23;5.10;;;18.20;99.90;;;;;;6185464;23;20036;-89
2022/07/08 22:12:34;;;;;;;12.23;5.47;;;17.20;99.90;;;;;;6186653;23;20068;-90
2022/07/08 22:15:11;;;;;;;14.88;5.53;;;18.40;99.90;;;;;;6187285;23;20024;-89
2022/07/08 22:17:38;;;;;;;13.70;5.93;;;17.10;99.90;;;;;;6187100;23;20017;-89
2022/07/08 22:20:11;;;;;;;11.38;5.10;;;17.80;99.90;;;;;;6160037;23;20055;-88
2022/07/08 22:22:41;;;;;;;12.50;5.30;;;17.20;99.90;;;;;;6185484;23;20454;-88
2022/07/08 22:25:15;;;;;;;13.35;5.32;;;16.70;99.90;;;;;;6186321;23;20035;-88
2022/07/08 22:27:42;;;;;;;11.63;5.00;;;17.90;99.90;;;;;;6185550;23;20359;-88
2022/07/08 22:30:08;;;;;;;13.55;5.63;;;17.00;99.90;;;;;;6093698;23;20025;-88
2022/07/08 22:32:39;;;;;;;13.65;5.30;;;17.10;99.90;;;;;;6094779;23;20100;-88
2022/07/08 22:35:20;;;;;;;11.82;5.57;;;18.20;99.90;;;;;;6094814;23;20411;-88
2022/07/08 22:37:46;;;;;;;16.45;6.05;;;17.20;99.90;;;;;;6098658;23;20150;-89
2022/07/08 22:40:14;;;;;;;12.02;5.63;;;17.10;99.90;;;;;;6094663;23;20019;-88
2022/07/08 22:43:01;;;;;;;14.70;5.70;;;18.10;99.90;;;;;;6094169;23;20398;-89
2022/07/08 22:45:42;;;;;;;14.90;6.45;;;17.00;99.90;;;;;;6169975;23;20021;-89
2022/07/08 22:48:12;;;;;;;12.18;6.38;;;17.10;99.90;;;;;;6159651;23;20032;-89
2022/07/08 22:50:44;;;;;;;12.52;5.90;;;17.70;99.90;;;;;;6158780;23;20071;-89
2022/07/08 22:53:13;;;;;;;14.82;5.55;;;17.80;99.90;;;;;;6186546;23;20068;-88
2022/07/08 22:55:44;;;;;;;17.38;6.15;;;17.90;99.90;;;;;;6159660;23;20017;-88
2022/07/08 22:58:10;;;;;;;14.73;6.00;;;17.00;99.90;;;;;;6185403;23;20024;-90
2022/07/08 23:00:41;;;;;;;14.82;6.15;;;18.00;99.90;;;;;;6153669;23;20018;-88
2022/07/08 23:03:07;;;;;;;13.55;6.20;;;16.90;99.90;;;;;;6156812;23;20021;-89
2022/07/08 23:05:33;;;;;;;14.15;6.47;;;16.90;99.90;;;;;;6155329;23;20017;-89
2022/07/08 23:07:59;;;;;;;12.65;6.50;;;17.80;99.90;;;;;;6154685;23;20013;-90
2022/07/08 23:10:43;;;;;;;14.18;6.30;;;17.40;99.90;;;;;;6154720;23;20335;-89
2022/07/08 23:13:14;;;;;;;15.15;6.32;;;16.80;99.90;;;;;;6155331;23;20084;-90
2022/07/08 23:15:56;;;;;;;13.50;6.35;;;17.30;99.90;;;;;;6153788;23;20017;-89
2022/07/08 23:18:21;;;;;;;13.60;6.40;;;16.70;99.90;;;;;;6153117;23;20025;-89
2022/07/08 23:20:50;;;;;;;15.30;6.15;;;16.80;99.90;;;;;;6155444;23;20009;-89
2022/07/08 23:23:28;;;;;;;14.20;6.80;;;17.50;99.90;;;;;;6154455;23;20014;-88
2022/07/08 23:26:08;;;;;;;14.25;6.60;;;16.70;99.90;;;;;;6154680;23;20482;-90
2022/07/08 23:28:46;;;;;;;16.67;6.22;;;17.40;99.90;;;;;;6154056;23;20021;-89
2022/07/08 23:31:17;;;;;;;15.50;6.80;;;17.30;99.90;;;;;;6156069;23;20041;-88
2022/07/08 23:33:43;;;;;;;14.18;6.20;;;17.20;99.90;;;;;;6152577;23;20476;-88
2022/07/08 23:36:14;;;;;;;16.05;7.35;;;16.70;99.90;;;;;;6155430;23;20014;-89
2022/07/08 23:38:56;;;;;;;16.30;7.20;;;15.70;99.90;;;;;;6153630;23;20018;-89
2022/07/08 23:41:39;;;;;;;15.13;6.95;;;17.10;99.90;;;;;;6155502;23;20025;-87
2022/07/08 23:44:11;;;;;;;16.67;6.78;;;16.50;99.90;;;;;;6171143;23;20061;-88
2022/07/08 23:46:40;;;;;;;19.60;6.78;;;17.50;99.90;;;;;;6159905;23;20013;-89
2022/07/08 23:49:11;;;;;;;17.15;7.13;;;16.00;99.90;;;;;;6154435;23;20025;-88
2022/07/08 23:51:44;;;;;;;17.08;7.32;;;16.90;99.90;;;;;;6153787;23;20484;-89
2022/07/08 23:54:12;;;;;;;17.42;7.15;;;16.10;99.90;;;;;;6153713;23;20345;-89
2022/07/08 23:56:38;;;;;;;19.30;7.30;;;16.30;99.90;;;;;;6155508;23;20088;-89
2022/07/08 23:59:03;;;;;;;14.02;7.28;;;17.40;99.90;;;;;;6153131;23;20450;-88
